sensor_id;sensor_type;location;lat;lon;timestamp;P1;durP1;ratioP1;P2;durP2;ratioP2
36593;SDS011;22603;47.900;8.146;2022-09-29T00:01:02;5.07;;;2.20;;
36593;SDS011;22603;47.900;8.146;2022-09-29T00:03:50;7.00;;;2.67;;
36593;SDS011;22603;47.900;8.146;2022-09-29T00:06:38;4.77;;;1.90;;
36593;SDS011;22603;47.900;8.146;2022-09-29T00:09:25;6.07;;;2.40;;
36593;SDS011;22603;47.900;8.146;2022-09-29T00:12:12;4.17;;;2.00;;
36593;SDS011;22603;47.900;8.146;2022-09-29T00:14:58;4.47;;;1.70;;
36593;SDS011;22603;47.900;8.146;2022-09-29T00:17:45;6.80;;;2.40;;
36593;SDS011;22603;47.900;8.146;2022-09-29T00:20:59;5.13;;;2.20;;
36593;SDS011;22603;47.900;8.146;2022-09-29T00:23:48;4.87;;;2.00;;
36593;SDS011;22603;47.900;8.146;2022-09-29T00:26:35;5.50;;;2.03;;
36593;SDS011;22603;47.900;8.146;2022-09-29T00:29:22;6.47;;;2.80;;
36593;SDS011;22603;47.900;8.146;2022-09-29T00:32:09;6.03;;;2.37;;
36593;SDS011;22603;47.900;8.146;2022-09-29T00:34:56;7.53;;;2.20;;
36593;SDS011;22603;47.900;8.146;2022-09-29T00:37:43;6.10;;;2.30;;
36593;SDS011;22603;47.900;8.146;2022-09-29T00:40:31;5.57;;;2.17;;
36593;SDS011;22603;47.900;8.146;2022-09-29T00:43:19;5.53;;;2.13;;
36593;SDS011;22603;47.900;8.146;2022-09-29T00:46:07;4.97;;;2.07;;
36593;SDS011;22603;47.900;8.146;2022-09-29T00:48:54;8.23;;;2.10;;
36593;SDS011;22603;47.900;8.146;2022-09-29T00:51:45;6.27;;;2.70;;
36593;SDS011;22603;47.900;8.146;2022-09-29T00:54:36;7.93;;;2.37;;
36593;SDS011;22603;47.900;8.146;2022-09-29T00:57:30;5.70;;;2.13;;
36593;SDS011;22603;47.900;8.146;2022-09-29T01:00:22;4.97;;;2.00;;
36593;SDS011;22603;47.900;8.146;2022-09-29T01:03:11;5.90;;;1.93;;
36593;SDS011;22603;47.900;8.146;2022-09-29T01:06:02;5.77;;;2.20;;
36593;SDS011;22603;47.900;8.146;2022-09-29T01:08:57;6.63;;;2.77;;
36593;SDS011;22603;47.900;8.146;2022-09-29T01:11:46;7.97;;;3.33;;
36593;SDS011;22603;47.900;8.146;2022-09-29T01:14:34;7.53;;;3.30;;
36593;SDS011;22603;47.900;8.146;2022-09-29T01:17:23;5.70;;;2.17;;
36593;SDS011;22603;47.900;8.146;2022-09-29T01:20:11;6.33;;;2.47;;
36593;SDS011;22603;47.900;8.146;2022-09-29T01:23:13;5.80;;;2.00;;
36593;SDS011;22603;47.900;8.146;2022-09-29T01:29:40;4.70;;;1.87;;
36593;SDS011;22603;47.900;8.146;2022-09-29T01:36:07;6.20;;;1.97;;
36593;SDS011;22603;47.900;8.146;2022-09-29T01:39:03;4.33;;;1.70;;
36593;SDS011;22603;47.900;8.146;2022-09-29T01:41:56;4.80;;;1.67;;
36593;SDS011;22603;47.900;8.146;2022-09-29T01:44:48;4.83;;;1.80;;
36593;SDS011;22603;47.900;8.146;2022-09-29T01:47:39;6.30;;;1.97;;
36593;SDS011;22603;47.900;8.146;2022-09-29T01:50:33;4.67;;;1.67;;
36593;SDS011;22603;47.900;8.146;2022-09-29T01:53:24;3.57;;;1.80;;
36593;SDS011;22603;47.900;8.146;2022-09-29T01:56:16;4.03;;;1.70;;
36593;SDS011;22603;47.900;8.146;2022-09-29T01:59:10;3.57;;;1.50;;
36593;SDS011;22603;47.900;8.146;2022-09-29T02:02:03;6.23;;;1.70;;
36593;SDS011;22603;47.900;8.146;2022-09-29T02:04:55;8.20;;;1.70;;
36593;SDS011;22603;47.900;8.146;2022-09-29T02:07:46;7.33;;;1.80;;
36593;SDS011;22603;47.900;8.146;2022-09-29T02:10:35;5.73;;;1.73;;
36593;SDS011;22603;47.900;8.146;2022-09-29T02:13:26;6.87;;;1.77;;
36593;SDS011;22603;47.900;8.146;2022-09-29T02:16:17;4.30;;;1.67;;
36593;SDS011;22603;47.900;8.146;2022-09-29T02:19:08;2.17;;;1.10;;
36593;SDS011;22603;47.900;8.146;2022-09-29T02:22:00;2.53;;;1.30;;
36593;SDS011;22603;47.900;8.146;2022-09-29T02:24:49;3.03;;;1.27;;
36593;SDS011;22603;47.900;8.146;2022-09-29T02:27:40;3.87;;;1.23;;
36593;SDS011;22603;47.900;8.146;2022-09-29T02:30:27;4.53;;;1.60;;
36593;SDS011;22603;47.900;8.146;2022-09-29T02:33:18;5.07;;;1.40;;
36593;SDS011;22603;47.900;8.146;2022-09-29T02:36:11;6.27;;;2.20;;
36593;SDS011;22603;47.900;8.146;2022-09-29T02:39:06;5.90;;;1.83;;
36593;SDS011;22603;47.900;8.146;2022-09-29T02:42:03;8.87;;;3.10;;
36593;SDS011;22603;47.900;8.146;2022-09-29T02:45:00;7.00;;;2.70;;
36593;SDS011;22603;47.900;8.146;2022-09-29T02:48:11;7.20;;;2.27;;
36593;SDS011;22603;47.900;8.146;2022-09-29T02:51:12;5.73;;;2.20;;
36593;SDS011;22603;47.900;8.146;2022-09-29T02:54:06;4.90;;;1.93;;
36593;SDS011;22603;47.900;8.146;2022-09-29T02:57:07;5.47;;;2.20;;
36593;SDS011;22603;47.900;8.146;2022-09-29T03:00:03;5.27;;;2.17;;
36593;SDS011;22603;47.900;8.146;2022-09-29T03:02:53;5.43;;;1.90;;
36593;SDS011;22603;47.900;8.146;2022-09-29T03:05:40;4.13;;;1.53;;
36593;SDS011;22603;47.900;8.146;2022-09-29T03:08:27;4.17;;;1.63;;
36593;SDS011;22603;47.900;8.146;2022-09-29T03:11:14;4.80;;;1.90;;
36593;SDS011;22603;47.900;8.146;2022-09-29T03:14:02;4.20;;;1.50;;
36593;SDS011;22603;47.900;8.146;2022-09-29T03:16:50;5.90;;;2.07;;
36593;SDS011;22603;47.900;8.146;2022-09-29T03:19:37;4.47;;;1.70;;
36593;SDS011;22603;47.900;8.146;2022-09-29T03:22:24;4.07;;;1.67;;
36593;SDS011;22603;47.900;8.146;2022-09-29T03:25:11;4.57;;;1.53;;
36593;SDS011;22603;47.900;8.146;2022-09-29T03:27:59;4.70;;;1.77;;
36593;SDS011;22603;47.900;8.146;2022-09-29T03:30:48;4.93;;;1.33;;
36593;SDS011;22603;47.900;8.146;2022-09-29T03:33:35;3.90;;;1.87;;
36593;SDS011;22603;47.900;8.146;2022-09-29T03:36:22;5.23;;;1.93;;
36593;SDS011;22603;47.900;8.146;2022-09-29T03:39:08;3.70;;;1.90;;
36593;SDS011;22603;47.900;8.146;2022-09-29T03:41:55;4.33;;;1.67;;
36593;SDS011;22603;47.900;8.146;2022-09-29T03:44:42;4.67;;;1.73;;
36593;SDS011;22603;47.900;8.146;2022-09-29T03:47:30;4.77;;;1.97;;
36593;SDS011;22603;47.900;8.146;2022-09-29T03:50:17;5.33;;;1.63;;
36593;SDS011;22603;47.900;8.146;2022-09-29T03:53:04;3.40;;;1.40;;
36593;SDS011;22603;47.900;8.146;2022-09-29T03:55:51;4.77;;;1.57;;
36593;SDS011;22603;47.900;8.146;2022-09-29T03:58:38;5.63;;;2.30;;
36593;SDS011;22603;47.900;8.146;2022-09-29T04:01:25;6.50;;;2.40;;
36593;SDS011;22603;47.900;8.146;2022-09-29T04:04:13;11.97;;;2.33;;
36593;SDS011;22603;47.900;8.146;2022-09-29T04:06:59;5.60;;;2.23;;
36593;SDS011;22603;47.900;8.146;2022-09-29T04:09:46;6.50;;;2.37;;
36593;SDS011;22603;47.900;8.146;2022-09-29T04:12:33;6.50;;;1.80;;
36593;SDS011;22603;47.900;8.146;2022-09-29T04:15:20;5.00;;;1.87;;
36593;SDS011;22603;47.900;8.146;2022-09-29T04:18:07;6.43;;;2.03;;
36593;SDS011;22603;47.900;8.146;2022-09-29T04:20:55;5.00;;;2.07;;
36593;SDS011;22603;47.900;8.146;2022-09-29T04:23:44;5.73;;;1.90;;
36593;SDS011;22603;47.900;8.146;2022-09-29T04:26:31;6.33;;;2.20;;
36593;SDS011;22603;47.900;8.146;2022-09-29T04:29:17;5.20;;;2.07;;
36593;SDS011;22603;47.900;8.146;2022-09-29T04:32:05;4.23;;;1.73;;
36593;SDS011;22603;47.900;8.146;2022-09-29T04:34:52;5.43;;;2.13;;
36593;SDS011;22603;47.900;8.146;2022-09-29T04:37:40;5.93;;;2.20;;
36593;SDS011;22603;47.900;8.146;2022-09-29T04:40:27;8.10;;;1.83;;
36593;SDS011;22603;47.900;8.146;2022-09-29T04:43:14;11.53;;;2.20;;
36593;SDS011;22603;47.900;8.146;2022-09-29T04:46:02;5.70;;;1.83;;
36593;SDS011;22603;47.900;8.146;2022-09-29T04:48:50;5.07;;;1.90;;
36593;SDS011;22603;47.900;8.146;2022-09-29T04:51:37;4.97;;;1.93;;
36593;SDS011;22603;47.900;8.146;2022-09-29T04:54:25;7.17;;;2.03;;
36593;SDS011;22603;47.900;8.146;2022-09-29T04:57:21;4.40;;;1.87;;
36593;SDS011;22603;47.900;8.146;2022-09-29T05:00:09;5.07;;;1.90;;
36593;SDS011;22603;47.900;8.146;2022-09-29T05:02:57;5.30;;;1.90;;
36593;SDS011;22603;47.900;8.146;2022-09-29T05:05:44;7.73;;;2.17;;
36593;SDS011;22603;47.900;8.146;2022-09-29T05:08:31;5.20;;;1.33;;
36593;SDS011;22603;47.900;8.146;2022-09-29T05:11:19;6.90;;;1.90;;
36593;SDS011;22603;47.900;8.146;2022-09-29T05:14:06;7.20;;;2.13;;
36593;SDS011;22603;47.900;8.146;2022-09-29T05:16:53;6.27;;;1.90;;
36593;SDS011;22603;47.900;8.146;2022-09-29T05:19:40;8.67;;;2.87;;
36593;SDS011;22603;47.900;8.146;2022-09-29T05:22:27;11.23;;;3.40;;
36593;SDS011;22603;47.900;8.146;2022-09-29T05:25:16;6.20;;;2.33;;
36593;SDS011;22603;47.900;8.146;2022-09-29T05:28:22;5.73;;;2.07;;
36593;SDS011;22603;47.900;8.146;2022-09-29T05:31:09;7.03;;;2.40;;
36593;SDS011;22603;47.900;8.146;2022-09-29T05:33:57;7.20;;;2.50;;
36593;SDS011;22603;47.900;8.146;2022-09-29T05:36:46;10.03;;;3.03;;
36593;SDS011;22603;47.900;8.146;2022-09-29T05:39:33;7.97;;;3.00;;
36593;SDS011;22603;47.900;8.146;2022-09-29T05:42:21;8.00;;;2.77;;
36593;SDS011;22603;47.900;8.146;2022-09-29T05:45:09;7.10;;;2.47;;
36593;SDS011;22603;47.900;8.146;2022-09-29T05:47:56;6.67;;;2.60;;
36593;SDS011;22603;47.900;8.146;2022-09-29T05:50:44;9.93;;;2.27;;
36593;SDS011;22603;47.900;8.146;2022-09-29T05:53:31;8.90;;;3.00;;
36593;SDS011;22603;47.900;8.146;2022-09-29T05:56:19;8.13;;;3.20;;
36593;SDS011;22603;47.900;8.146;2022-09-29T05:59:08;9.67;;;3.00;;
36593;SDS011;22603;47.900;8.146;2022-09-29T06:01:56;8.30;;;2.43;;
36593;SDS011;22603;47.900;8.146;2022-09-29T06:04:45;8.03;;;3.13;;
36593;SDS011;22603;47.900;8.146;2022-09-29T06:07:32;8.37;;;2.93;;
36593;SDS011;22603;47.900;8.146;2022-09-29T06:10:19;7.40;;;2.77;;
36593;SDS011;22603;47.900;8.146;2022-09-29T06:13:06;6.37;;;2.40;;
36593;SDS011;22603;47.900;8.146;2022-09-29T06:15:53;10.20;;;2.30;;
36593;SDS011;22603;47.900;8.146;2022-09-29T06:18:42;9.57;;;2.47;;
36593;SDS011;22603;47.900;8.146;2022-09-29T06:21:29;5.80;;;2.40;;
36593;SDS011;22603;47.900;8.146;2022-09-29T06:24:17;8.30;;;2.80;;
36593;SDS011;22603;47.900;8.146;2022-09-29T06:27:04;9.77;;;3.07;;
36593;SDS011;22603;47.900;8.146;2022-09-29T06:29:51;6.00;;;2.47;;
36593;SDS011;22603;47.900;8.146;2022-09-29T06:32:39;7.50;;;2.70;;
36593;SDS011;22603;47.900;8.146;2022-09-29T06:35:27;5.70;;;2.23;;
36593;SDS011;22603;47.900;8.146;2022-09-29T06:38:31;7.23;;;2.47;;
36593;SDS011;22603;47.900;8.146;2022-09-29T06:41:18;5.67;;;2.17;;
36593;SDS011;22603;47.900;8.146;2022-09-29T06:44:05;8.20;;;2.50;;
36593;SDS011;22603;47.900;8.146;2022-09-29T06:46:53;6.73;;;2.13;;
36593;SDS011;22603;47.900;8.146;2022-09-29T06:49:40;7.17;;;2.93;;
36593;SDS011;22603;47.900;8.146;2022-09-29T06:52:40;7.13;;;3.03;;
36593;SDS011;22603;47.900;8.146;2022-09-29T06:55:50;8.53;;;3.40;;
36593;SDS011;22603;47.900;8.146;2022-09-29T06:58:37;11.20;;;3.37;;
36593;SDS011;22603;47.900;8.146;2022-09-29T07:01:24;10.27;;;3.47;;
36593;SDS011;22603;47.900;8.146;2022-09-29T07:04:12;8.53;;;3.03;;
36593;SDS011;22603;47.900;8.146;2022-09-29T07:06:59;8.23;;;2.30;;
36593;SDS011;22603;47.900;8.146;2022-09-29T07:09:48;6.33;;;1.90;;
36593;SDS011;22603;47.900;8.146;2022-09-29T07:12:34;5.97;;;2.30;;
36593;SDS011;22603;47.900;8.146;2022-09-29T07:15:21;5.90;;;2.17;;
36593;SDS011;22603;47.900;8.146;2022-09-29T07:18:15;4.47;;;1.87;;
36593;SDS011;22603;47.900;8.146;2022-09-29T07:21:02;3.67;;;1.53;;
36593;SDS011;22603;47.900;8.146;2022-09-29T07:23:49;5.87;;;1.50;;
36593;SDS011;22603;47.900;8.146;2022-09-29T07:26:37;5.03;;;2.03;;
36593;SDS011;22603;47.900;8.146;2022-09-29T07:29:24;6.13;;;2.30;;
36593;SDS011;22603;47.900;8.146;2022-09-29T07:32:11;4.40;;;1.80;;
36593;SDS011;22603;47.900;8.146;2022-09-29T07:35:11;4.33;;;1.90;;
36593;SDS011;22603;47.900;8.146;2022-09-29T07:37:59;5.57;;;2.33;;
36593;SDS011;22603;47.900;8.146;2022-09-29T07:40:46;5.07;;;1.93;;
36593;SDS011;22603;47.900;8.146;2022-09-29T07:43:34;5.47;;;2.20;;
36593;SDS011;22603;47.900;8.146;2022-09-29T07:46:21;4.83;;;1.83;;
36593;SDS011;22603;47.900;8.146;2022-09-29T07:49:08;3.97;;;1.70;;
36593;SDS011;22603;47.900;8.146;2022-09-29T07:51:54;6.77;;;2.47;;
36593;SDS011;22603;47.900;8.146;2022-09-29T07:54:42;6.27;;;1.93;;
36593;SDS011;22603;47.900;8.146;2022-09-29T07:57:29;4.57;;;1.80;;
36593;SDS011;22603;47.900;8.146;2022-09-29T08:00:18;3.07;;;1.30;;
36593;SDS011;22603;47.900;8.146;2022-09-29T08:03:05;4.50;;;1.87;;
36593;SDS011;22603;47.900;8.146;2022-09-29T08:05:52;3.10;;;1.27;;
36593;SDS011;22603;47.900;8.146;2022-09-29T08:08:40;3.57;;;1.47;;
36593;SDS011;22603;47.900;8.146;2022-09-29T08:11:43;3.50;;;1.50;;
36593;SDS011;22603;47.900;8.146;2022-09-29T08:14:31;3.83;;;1.40;;
36593;SDS011;22603;47.900;8.146;2022-09-29T08:17:20;3.30;;;1.30;;
36593;SDS011;22603;47.900;8.146;2022-09-29T08:20:07;2.37;;;1.20;;
36593;SDS011;22603;47.900;8.146;2022-09-29T08:22:54;2.80;;;1.23;;
36593;SDS011;22603;47.900;8.146;2022-09-29T08:25:41;3.13;;;1.17;;
36593;SDS011;22603;47.900;8.146;2022-09-29T08:28:41;2.43;;;1.10;;
36593;SDS011;22603;47.900;8.146;2022-09-29T08:31:29;2.67;;;1.43;;
36593;SDS011;22603;47.900;8.146;2022-09-29T08:34:18;5.63;;;1.50;;
36593;SDS011;22603;47.900;8.146;2022-09-29T08:37:05;3.03;;;1.30;;
36593;SDS011;22603;47.900;8.146;2022-09-29T08:39:51;4.67;;;1.47;;
36593;SDS011;22603;47.900;8.146;2022-09-29T08:42:42;2.13;;;1.10;;
36593;SDS011;22603;47.900;8.146;2022-09-29T08:45:38;5.10;;;1.20;;
36593;SDS011;22603;47.900;8.146;2022-09-29T08:48:43;2.17;;;1.00;;
36593;SDS011;22603;47.900;8.146;2022-09-29T08:51:44;4.53;;;1.27;;
36593;SDS011;22603;47.900;8.146;2022-09-29T08:54:36;3.00;;;1.10;;
36593;SDS011;22603;47.900;8.146;2022-09-29T08:57:33;3.87;;;1.23;;
36593;SDS011;22603;47.900;8.146;2022-09-29T09:00:20;2.97;;;0.90;;
36593;SDS011;22603;47.900;8.146;2022-09-29T09:03:21;1.97;;;1.13;;
36593;SDS011;22603;47.900;8.146;2022-09-29T09:06:22;2.83;;;1.30;;
36593;SDS011;22603;47.900;8.146;2022-09-29T09:12:38;1.80;;;1.13;;
36593;SDS011;22603;47.900;8.146;2022-09-29T09:15:44;3.57;;;1.80;;
36593;SDS011;22603;47.900;8.146;2022-09-29T09:22:00;4.27;;;1.47;;
36593;SDS011;22603;47.900;8.146;2022-09-29T09:25:00;3.87;;;1.30;;
36593;SDS011;22603;47.900;8.146;2022-09-29T09:28:02;4.27;;;1.50;;
36593;SDS011;22603;47.900;8.146;2022-09-29T09:30:52;3.50;;;1.57;;
36593;SDS011;22603;47.900;8.146;2022-09-29T09:33:44;3.10;;;1.37;;
36593;SDS011;22603;47.900;8.146;2022-09-29T09:36:51;5.77;;;1.67;;
36593;SDS011;22603;47.900;8.146;2022-09-29T09:39:53;1.63;;;0.90;;
36593;SDS011;22603;47.900;8.146;2022-09-29T09:42:46;1.33;;;0.90;;
36593;SDS011;22603;47.900;8.146;2022-09-29T09:45:38;2.93;;;1.10;;
36593;SDS011;22603;47.900;8.146;2022-09-29T09:48:32;2.17;;;1.13;;
36593;SDS011;22603;47.900;8.146;2022-09-29T09:51:29;1.73;;;1.07;;
36593;SDS011;22603;47.900;8.146;2022-09-29T09:54:26;3.03;;;1.10;;
36593;SDS011;22603;47.900;8.146;2022-09-29T09:57:21;2.73;;;1.03;;
36593;SDS011;22603;47.900;8.146;2022-09-29T10:00:20;3.67;;;1.30;;
36593;SDS011;22603;47.900;8.146;2022-09-29T10:03:09;2.50;;;1.07;;
36593;SDS011;22603;47.900;8.146;2022-09-29T10:05:58;1.90;;;1.03;;
36593;SDS011;22603;47.900;8.146;2022-09-29T10:08:45;4.23;;;1.27;;
36593;SDS011;22603;47.900;8.146;2022-09-29T10:11:32;1.10;;;0.80;;
36593;SDS011;22603;47.900;8.146;2022-09-29T10:14:20;1.93;;;1.00;;
36593;SDS011;22603;47.900;8.146;2022-09-29T10:17:11;4.30;;;1.20;;
36593;SDS011;22603;47.900;8.146;2022-09-29T10:20:00;1.53;;;0.97;;
36593;SDS011;22603;47.900;8.146;2022-09-29T10:22:49;1.27;;;0.80;;
36593;SDS011;22603;47.900;8.146;2022-09-29T10:25:36;1.00;;;0.73;;
36593;SDS011;22603;47.900;8.146;2022-09-29T10:28:22;1.27;;;0.70;;
36593;SDS011;22603;47.900;8.146;2022-09-29T10:31:18;1.53;;;0.70;;
36593;SDS011;22603;47.900;8.146;2022-09-29T10:34:14;1.40;;;0.73;;
36593;SDS011;22603;47.900;8.146;2022-09-29T10:37:03;1.00;;;0.90;;
36593;SDS011;22603;47.900;8.146;2022-09-29T10:39:51;1.37;;;0.70;;
36593;SDS011;22603;47.900;8.146;2022-09-29T10:42:49;1.30;;;0.80;;
36593;SDS011;22603;47.900;8.146;2022-09-29T10:45:45;1.97;;;0.80;;
36593;SDS011;22603;47.900;8.146;2022-09-29T10:48:34;2.33;;;1.00;;
36593;SDS011;22603;47.900;8.146;2022-09-29T10:51:23;1.23;;;0.70;;
36593;SDS011;22603;47.900;8.146;2022-09-29T10:54:13;2.03;;;0.93;;
36593;SDS011;22603;47.900;8.146;2022-09-29T10:57:10;1.20;;;0.70;;
36593;SDS011;22603;47.900;8.146;2022-09-29T10:59:58;2.33;;;0.83;;
36593;SDS011;22603;47.900;8.146;2022-09-29T11:02:46;0.60;;;0.60;;
36593;SDS011;22603;47.900;8.146;2022-09-29T11:05:33;1.53;;;0.90;;
36593;SDS011;22603;47.900;8.146;2022-09-29T11:08:23;1.47;;;0.80;;
36593;SDS011;22603;47.900;8.146;2022-09-29T11:11:16;0.83;;;0.70;;
36593;SDS011;22603;47.900;8.146;2022-09-29T11:14:07;1.43;;;0.80;;
36593;SDS011;22603;47.900;8.146;2022-09-29T11:17:20;0.70;;;0.70;;
36593;SDS011;22603;47.900;8.146;2022-09-29T11:20:10;3.07;;;0.90;;
36593;SDS011;22603;47.900;8.146;2022-09-29T11:23:06;2.87;;;1.00;;
36593;SDS011;22603;47.900;8.146;2022-09-29T11:26:08;1.73;;;0.80;;
36593;SDS011;22603;47.900;8.146;2022-09-29T11:29:08;1.67;;;0.87;;
36593;SDS011;22603;47.900;8.146;2022-09-29T11:32:17;3.63;;;0.93;;
36593;SDS011;22603;47.900;8.146;2022-09-29T11:35:26;1.47;;;0.90;;
36593;SDS011;22603;47.900;8.146;2022-09-29T11:41:40;1.97;;;0.90;;
36593;SDS011;22603;47.900;8.146;2022-09-29T11:44:46;1.23;;;0.80;;
36593;SDS011;22603;47.900;8.146;2022-09-29T11:51:21;1.63;;;0.70;;
36593;SDS011;22603;47.900;8.146;2022-09-29T11:54:18;1.43;;;0.63;;
36593;SDS011;22603;47.900;8.146;2022-09-29T11:57:21;0.80;;;0.70;;
36593;SDS011;22603;47.900;8.146;2022-09-29T12:00:17;1.13;;;0.70;;
36593;SDS011;22603;47.900;8.146;2022-09-29T12:06:41;2.00;;;0.60;;
36593;SDS011;22603;47.900;8.146;2022-09-29T12:13:04;1.23;;;0.70;;
36593;SDS011;22603;47.900;8.146;2022-09-29T12:15:57;1.07;;;0.60;;
36593;SDS011;22603;47.900;8.146;2022-09-29T12:18:51;3.47;;;0.93;;
36593;SDS011;22603;47.900;8.146;2022-09-29T12:21:41;2.33;;;0.80;;
36593;SDS011;22603;47.900;8.146;2022-09-29T12:24:34;23.00;;;5.67;;
36593;SDS011;22603;47.900;8.146;2022-09-29T12:27:24;3.20;;;1.07;;
36593;SDS011;22603;47.900;8.146;2022-09-29T12:30:17;3.90;;;0.93;;
36593;SDS011;22603;47.900;8.146;2022-09-29T12:33:06;3.87;;;0.80;;
36593;SDS011;22603;47.900;8.146;2022-09-29T12:36:06;1.57;;;0.87;;
36593;SDS011;22603;47.900;8.146;2022-09-29T12:39:24;0.80;;;0.70;;
36593;SDS011;22603;47.900;8.146;2022-09-29T12:42:24;2.10;;;1.00;;
36593;SDS011;22603;47.900;8.146;2022-09-29T12:45:24;5.83;;;2.00;;
36593;SDS011;22603;47.900;8.146;2022-09-29T12:48:28;2.90;;;1.10;;
36593;SDS011;22603;47.900;8.146;2022-09-29T12:51:31;1.73;;;1.00;;
36593;SDS011;22603;47.900;8.146;2022-09-29T12:54:22;0.70;;;0.60;;
36593;SDS011;22603;47.900;8.146;2022-09-29T12:57:13;0.57;;;0.57;;
36593;SDS011;22603;47.900;8.146;2022-09-29T13:00:03;2.63;;;1.00;;
36593;SDS011;22603;47.900;8.146;2022-09-29T13:06:29;2.17;;;0.70;;
36593;SDS011;22603;47.900;8.146;2022-09-29T13:09:33;0.50;;;0.50;;
36593;SDS011;22603;47.900;8.146;2022-09-29T13:12:41;1.97;;;0.97;;
36593;SDS011;22603;47.900;8.146;2022-09-29T13:15:52;2.27;;;0.90;;
36593;SDS011;22603;47.900;8.146;2022-09-29T13:19:04;2.87;;;1.10;;
36593;SDS011;22603;47.900;8.146;2022-09-29T13:22:29;3.30;;;1.00;;
36593;SDS011;22603;47.900;8.146;2022-09-29T13:25:27;2.30;;;1.10;;
36593;SDS011;22603;47.900;8.146;2022-09-29T13:28:23;2.50;;;1.00;;
36593;SDS011;22603;47.900;8.146;2022-09-29T13:31:15;1.83;;;0.70;;
36593;SDS011;22603;47.900;8.146;2022-09-29T13:34:15;1.87;;;0.63;;
36593;SDS011;22603;47.900;8.146;2022-09-29T13:37:12;1.00;;;0.70;;
36593;SDS011;22603;47.900;8.146;2022-09-29T13:40:01;0.90;;;0.60;;
36593;SDS011;22603;47.900;8.146;2022-09-29T13:42:56;0.83;;;0.60;;
36593;SDS011;22603;47.900;8.146;2022-09-29T13:45:43;1.60;;;0.70;;
36593;SDS011;22603;47.900;8.146;2022-09-29T13:48:34;1.27;;;0.80;;
36593;SDS011;22603;47.900;8.146;2022-09-29T13:51:28;1.63;;;0.97;;
36593;SDS011;22603;47.900;8.146;2022-09-29T13:54:32;1.13;;;0.70;;
36593;SDS011;22603;47.900;8.146;2022-09-29T13:57:23;1.27;;;0.70;;
36593;SDS011;22603;47.900;8.146;2022-09-29T14:00:14;0.50;;;0.50;;
36593;SDS011;22603;47.900;8.146;2022-09-29T14:03:05;3.13;;;0.80;;
36593;SDS011;22603;47.900;8.146;2022-09-29T14:06:12;1.33;;;0.80;;
36593;SDS011;22603;47.900;8.146;2022-09-29T14:09:21;1.20;;;0.83;;
36593;SDS011;22603;47.900;8.146;2022-09-29T14:12:16;1.80;;;0.97;;
36593;SDS011;22603;47.900;8.146;2022-09-29T14:15:06;2.37;;;1.00;;
36593;SDS011;22603;47.900;8.146;2022-09-29T14:18:01;1.27;;;0.80;;
36593;SDS011;22603;47.900;8.146;2022-09-29T14:20:58;1.50;;;0.80;;
36593;SDS011;22603;47.900;8.146;2022-09-29T14:23:48;1.40;;;0.80;;
36593;SDS011;22603;47.900;8.146;2022-09-29T14:26:42;3.70;;;0.90;;
36593;SDS011;22603;47.900;8.146;2022-09-29T14:29:32;1.27;;;0.73;;
36593;SDS011;22603;47.900;8.146;2022-09-29T14:32:29;1.83;;;0.67;;
36593;SDS011;22603;47.900;8.146;2022-09-29T14:35:27;1.20;;;0.83;;
36593;SDS011;22603;47.900;8.146;2022-09-29T14:38:18;1.63;;;0.53;;
36593;SDS011;22603;47.900;8.146;2022-09-29T14:41:19;1.30;;;0.80;;
36593;SDS011;22603;47.900;8.146;2022-09-29T14:44:11;1.27;;;0.60;;
36593;SDS011;22603;47.900;8.146;2022-09-29T14:47:12;2.90;;;1.00;;
36593;SDS011;22603;47.900;8.146;2022-09-29T14:50:34;1.87;;;0.80;;
36593;SDS011;22603;47.900;8.146;2022-09-29T14:53:55;1.67;;;0.60;;
36593;SDS011;22603;47.900;8.146;2022-09-29T14:56:53;0.70;;;0.50;;
36593;SDS011;22603;47.900;8.146;2022-09-29T14:59:54;0.47;;;0.40;;
36593;SDS011;22603;47.900;8.146;2022-09-29T15:02:51;0.73;;;0.60;;
36593;SDS011;22603;47.900;8.146;2022-09-29T15:06:05;1.27;;;0.70;;
36593;SDS011;22603;47.900;8.146;2022-09-29T15:08:58;0.57;;;0.47;;
36593;SDS011;22603;47.900;8.146;2022-09-29T15:11:48;1.17;;;0.70;;
36593;SDS011;22603;47.900;8.146;2022-09-29T15:14:36;1.90;;;0.70;;
36593;SDS011;22603;47.900;8.146;2022-09-29T15:17:33;1.20;;;0.80;;
36593;SDS011;22603;47.900;8.146;2022-09-29T15:20:31;0.93;;;0.63;;
36593;SDS011;22603;47.900;8.146;2022-09-29T15:23:34;0.57;;;0.57;;
36593;SDS011;22603;47.900;8.146;2022-09-29T15:26:31;0.80;;;0.40;;
36593;SDS011;22603;47.900;8.146;2022-09-29T15:29:20;0.73;;;0.50;;
36593;SDS011;22603;47.900;8.146;2022-09-29T15:32:14;0.60;;;0.60;;
36593;SDS011;22603;47.900;8.146;2022-09-29T15:35:10;1.93;;;0.50;;
36593;SDS011;22603;47.900;8.146;2022-09-29T15:38:14;2.17;;;0.70;;
36593;SDS011;22603;47.900;8.146;2022-09-29T15:41:12;2.80;;;0.87;;
36593;SDS011;22603;47.900;8.146;2022-09-29T15:44:02;2.23;;;0.73;;
36593;SDS011;22603;47.900;8.146;2022-09-29T15:46:58;1.00;;;0.60;;
36593;SDS011;22603;47.900;8.146;2022-09-29T15:49:48;1.07;;;0.80;;
36593;SDS011;22603;47.900;8.146;2022-09-29T15:52:37;1.23;;;0.70;;
36593;SDS011;22603;47.900;8.146;2022-09-29T15:55:24;0.83;;;0.77;;
36593;SDS011;22603;47.900;8.146;2022-09-29T16:01:21;2.03;;;0.97;;
36593;SDS011;22603;47.900;8.146;2022-09-29T16:04:09;1.90;;;0.80;;
36593;SDS011;22603;47.900;8.146;2022-09-29T16:06:57;1.93;;;0.70;;
36593;SDS011;22603;47.900;8.146;2022-09-29T16:09:45;0.43;;;0.40;;
36593;SDS011;22603;47.900;8.146;2022-09-29T16:12:34;1.77;;;0.87;;
36593;SDS011;22603;47.900;8.146;2022-09-29T16:15:25;2.80;;;1.37;;
36593;SDS011;22603;47.900;8.146;2022-09-29T16:18:18;4.30;;;1.50;;
36593;SDS011;22603;47.900;8.146;2022-09-29T16:21:08;3.83;;;1.60;;
36593;SDS011;22603;47.900;8.146;2022-09-29T16:23:59;1.50;;;0.83;;
36593;SDS011;22603;47.900;8.146;2022-09-29T16:26:52;1.80;;;0.80;;
36593;SDS011;22603;47.900;8.146;2022-09-29T16:29:41;2.03;;;1.17;;
36593;SDS011;22603;47.900;8.146;2022-09-29T16:32:34;2.10;;;1.10;;
36593;SDS011;22603;47.900;8.146;2022-09-29T16:38:35;0.60;;;0.60;;
36593;SDS011;22603;47.900;8.146;2022-09-29T16:41:25;0.60;;;0.50;;
36593;SDS011;22603;47.900;8.146;2022-09-29T16:44:21;1.27;;;0.73;;
36593;SDS011;22603;47.900;8.146;2022-09-29T16:47:11;1.43;;;0.87;;
36593;SDS011;22603;47.900;8.146;2022-09-29T16:50:02;1.57;;;1.10;;
36593;SDS011;22603;47.900;8.146;2022-09-29T16:52:55;0.93;;;0.70;;
36593;SDS011;22603;47.900;8.146;2022-09-29T16:55:42;0.90;;;0.60;;
36593;SDS011;22603;47.900;8.146;2022-09-29T16:58:41;1.73;;;0.97;;
36593;SDS011;22603;47.900;8.146;2022-09-29T17:01:30;2.33;;;1.00;;
36593;SDS011;22603;47.900;8.146;2022-09-29T17:04:17;5.50;;;1.50;;
36593;SDS011;22603;47.900;8.146;2022-09-29T17:07:05;4.20;;;1.70;;
36593;SDS011;22603;47.900;8.146;2022-09-29T17:09:53;3.37;;;1.67;;
36593;SDS011;22603;47.900;8.146;2022-09-29T17:12:42;2.33;;;1.50;;
36593;SDS011;22603;47.900;8.146;2022-09-29T17:15:29;4.77;;;2.20;;
36593;SDS011;22603;47.900;8.146;2022-09-29T17:18:18;4.73;;;2.27;;
36593;SDS011;22603;47.900;8.146;2022-09-29T17:21:07;4.80;;;2.07;;
36593;SDS011;22603;47.900;8.146;2022-09-29T17:23:55;4.20;;;1.80;;
36593;SDS011;22603;47.900;8.146;2022-09-29T17:26:43;7.43;;;2.47;;
36593;SDS011;22603;47.900;8.146;2022-09-29T17:29:48;3.60;;;1.40;;
36593;SDS011;22603;47.900;8.146;2022-09-29T17:32:35;12.13;;;4.10;;
36593;SDS011;22603;47.900;8.146;2022-09-29T17:35:30;12.73;;;4.03;;
36593;SDS011;22603;47.900;8.146;2022-09-29T17:38:20;20.80;;;5.90;;
36593;SDS011;22603;47.900;8.146;2022-09-29T17:41:08;10.23;;;3.53;;
36593;SDS011;22603;47.900;8.146;2022-09-29T17:44:00;13.50;;;4.43;;
36593;SDS011;22603;47.900;8.146;2022-09-29T17:46:54;15.33;;;5.53;;
36593;SDS011;22603;47.900;8.146;2022-09-29T17:50:05;11.20;;;3.50;;
36593;SDS011;22603;47.900;8.146;2022-09-29T17:53:03;4.53;;;1.47;;
36593;SDS011;22603;47.900;8.146;2022-09-29T17:55:51;10.97;;;1.67;;